• Join FlightAware (Why Join?)
  • Login
  • US Flag 
12:24AM EDT


 

Airport Tracker/Info


-or-


 

Live Flight TrackerFlight Track Log ✈ N3223B ✈ 19-Jul-2013 ✈ KPOU - KALB

Flight Track Log - Related Links

Times and Time Zones

All times are in EDT time to prevent confusion due to time zone crossing. See the N3223B flight status page for this flight to view local times or setup timezone preferences in your user account.

Time Position Orientation Groundspeed Altitude Reporting Facility
EDT Latitude Longitude Course Direction KTS MPH feet Rate Location/Type
07:04PM 41.0833 -73.7167 360° North 100 115 1,100  Level New York TRACON
07:05PM 41.1167 -73.7167 360° North 128 147 1,800 600 Climbing New York TRACON
07:06PM 41.1667 -73.7167 360° North 140 161 2,400 660 Climbing New York TRACON
07:07PM 41.2000 -73.7167 360° North 140 161 3,200 780 Climbing New York TRACON
07:08PM 41.2333 -73.7167 360° North 139 160 4,000 720 Climbing New York TRACON
07:09PM 41.2833 -73.7167 360° North 141 162 4,700 780 Climbing New York TRACON
07:10PM 41.3167 -73.7167 360° North 139 160 5,600 420 Climbing New York TRACON
07:11PM 41.3667 -73.7167 360° North 166 191 5,600  Level New York TRACON
07:12PM 41.4000 -73.7167 360° North 170 196 5,600  Level New York TRACON
07:13PM 41.4667 -73.7167 360° North 171 197 5,600  Level New York TRACON
07:14PM 41.5000 -73.7333 339° North 171 197 5,600  Level New York TRACON
07:15PM 41.5500 -73.7333 360° North 172 198 5,600  Level New York TRACON
07:17PM 41.6167 -73.7500 349° North 171 197 5,600  Level New York TRACON
07:18PM 41.6500 -73.7500 360° North 176 203 5,600  Level New York TRACON
07:19PM 41.7000 -73.7500 360° North 179 206 5,600  Level New York TRACON
07:20PM 41.7500 -73.7500 360° North 177 204 5,600  Level New York TRACON
07:21PM 41.8000 -73.7500 360° North 178 205 5,600  Level New York TRACON
07:21PM 41.8500 -73.7500 360° North 176 203 5,600  Level New York TRACON
07:23PM 41.9000 -73.7667 346° North 174 200 5,600  Level New York TRACON
07:24PM 41.9500 -73.7667 360° North 176 203 5,600 -120 Level New York TRACON
07:25PM 42.0153 -73.7675 359° North 175 201 5,400 -60 Descending Boston Center
07:26PM 42.0611 -73.7711 357° North 173 199 5,500  Climbing Boston Center
07:27PM 42.1153 -73.7722 359° North 170 196 5,500  Level Boston Center
07:28PM 42.1611 -73.7761 356° North 170 196 5,500  Level Boston Center
07:29PM 42.2092 -73.7800 357° North 170 196 5,500  Level Boston Center
07:30PM 42.2550 -73.7836 357° North 170 196 5,500  Level Boston Center
07:31PM 42.3028 -73.7819 North 173 199 5,500 -60 Level Boston Center
07:32PM 42.3508 -73.7858 357° North 174 200 5,400 -240 Descending Boston Center
07:33PM 42.4028 -73.7811 North 176 203 5,100 -480 Descending Boston Center
07:34PM 42.4531 -73.7767 North 179 206 4,500 -600 Descending Boston Center
07:35PM 42.5031 -73.7694 North 179 206 3,900 -600 Descending Boston Center
07:36PM 42.5511 -73.7619 North 179 206 3,400 -600 Descending Boston Center
07:37PM 42.6033 -73.7544 North 181 208 2,700 -660 Descending Boston Center
07:38PM 42.6514 -73.7414 11° North 181 208 2,100 -600 Descending Boston Center
07:39PM 42.7014 -73.7397 North 168 193 1,600 -480 Descending Boston Center
07:40PM 42.7431 -73.7406 359° North 112 129 1,200 -480 Descending Boston Center
07:41PM 42.7492 -73.7661 288° West 84 97 600 -600 Descending Boston Center
07:43PM 42.7333 -73.8000 270° West  Level FlightAware Approximate